sensor_id;sensor_type;location;lat;lon;timestamp;temperature;humidity
45837;DHT22;31548;51.420;-0.040;2022-07-29T00:01:52;18.50;99.90
45837;DHT22;31548;51.420;-0.040;2022-07-29T00:04:20;18.40;99.90
45837;DHT22;31548;51.420;-0.040;2022-07-29T00:06:48;18.40;99.90
45837;DHT22;31548;51.420;-0.040;2022-07-29T00:09:15;18.40;99.90
45837;DHT22;31548;51.420;-0.040;2022-07-29T00:11:43;18.40;99.90
45837;DHT22;31548;51.420;-0.040;2022-07-29T00:14:10;18.40;99.90
45837;DHT22;31548;51.420;-0.040;2022-07-29T00:16:38;18.40;99.90
45837;DHT22;31548;51.420;-0.040;2022-07-29T00:19:06;18.40;99.90
45837;DHT22;31548;51.420;-0.040;2022-07-29T00:21:34;18.30;99.90
45837;DHT22;31548;51.420;-0.040;2022-07-29T00:24:01;18.30;99.90
45837;DHT22;31548;51.420;-0.040;2022-07-29T00:26:29;18.30;99.90
45837;DHT22;31548;51.420;-0.040;2022-07-29T00:29:00;18.20;99.90
45837;DHT22;31548;51.420;-0.040;2022-07-29T00:31:48;18.20;99.90
45837;DHT22;31548;51.420;-0.040;2022-07-29T00:34:16;18.20;99.90
45837;DHT22;31548;51.420;-0.040;2022-07-29T00:37:02;18.20;99.90
45837;DHT22;31548;51.420;-0.040;2022-07-29T00:39:29;18.30;99.90
45837;DHT22;31548;51.420;-0.040;2022-07-29T00:41:57;18.30;99.90
45837;DHT22;31548;51.420;-0.040;2022-07-29T00:44:24;18.30;99.90
45837;DHT22;31548;51.420;-0.040;2022-07-29T00:46:52;18.30;99.90
45837;DHT22;31548;51.420;-0.040;2022-07-29T00:49:19;18.30;99.90
45837;DHT22;31548;51.420;-0.040;2022-07-29T00:51:48;18.30;99.90
45837;DHT22;31548;51.420;-0.040;2022-07-29T00:54:16;18.30;99.90
45837;DHT22;31548;51.420;-0.040;2022-07-29T00:56:44;18.30;99.90
45837;DHT22;31548;51.420;-0.040;2022-07-29T00:59:12;18.30;99.90
45837;DHT22;31548;51.420;-0.040;2022-07-29T01:01:40;18.30;99.90
45837;DHT22;31548;51.420;-0.040;2022-07-29T01:04:07;18.30;99.90
45837;DHT22;31548;51.420;-0.040;2022-07-29T01:06:35;18.20;99.90
45837;DHT22;31548;51.420;-0.040;2022-07-29T01:09:03;18.30;99.90
45837;DHT22;31548;51.420;-0.040;2022-07-29T01:11:30;18.20;99.90
45837;DHT22;31548;51.420;-0.040;2022-07-29T01:13:59;18.30;99.90
45837;DHT22;31548;51.420;-0.040;2022-07-29T01:16:39;18.30;99.90
45837;DHT22;31548;51.420;-0.040;2022-07-29T01:22:25;18.30;99.90
45837;DHT22;31548;51.420;-0.040;2022-07-29T01:30:21;18.30;99.90
45837;DHT22;31548;51.420;-0.040;2022-07-29T01:32:53;18.30;99.90
45837;DHT22;31548;51.420;-0.040;2022-07-29T01:35:38;18.30;99.90
45837;DHT22;31548;51.420;-0.040;2022-07-29T01:38:13;18.30;99.90
45837;DHT22;31548;51.420;-0.040;2022-07-29T01:41:12;18.30;99.90
45837;DHT22;31548;51.420;-0.040;2022-07-29T01:44:11;18.30;99.90
45837;DHT22;31548;51.420;-0.040;2022-07-29T01:46:46;18.30;99.90
45837;DHT22;31548;51.420;-0.040;2022-07-29T01:49:27;18.30;99.90
45837;DHT22;31548;51.420;-0.040;2022-07-29T01:52:00;18.30;99.90
45837;DHT22;31548;51.420;-0.040;2022-07-29T01:54:44;18.20;99.90
45837;DHT22;31548;51.420;-0.040;2022-07-29T01:57:14;18.30;99.90
45837;DHT22;31548;51.420;-0.040;2022-07-29T01:59:45;18.20;99.90
45837;DHT22;31548;51.420;-0.040;2022-07-29T02:02:15;18.20;99.90
45837;DHT22;31548;51.420;-0.040;2022-07-29T02:04:45;18.10;99.90
45837;DHT22;31548;51.420;-0.040;2022-07-29T02:07:21;18.10;99.90
45837;DHT22;31548;51.420;-0.040;2022-07-29T02:09:50;18.10;99.90
45837;DHT22;31548;51.420;-0.040;2022-07-29T02:12:19;18.00;99.90
45837;DHT22;31548;51.420;-0.040;2022-07-29T02:14:50;17.90;99.90
45837;DHT22;31548;51.420;-0.040;2022-07-29T02:17:26;17.90;99.90
45837;DHT22;31548;51.420;-0.040;2022-07-29T02:19:58;17.90;99.90
45837;DHT22;31548;51.420;-0.040;2022-07-29T02:22:29;17.80;99.90
45837;DHT22;31548;51.420;-0.040;2022-07-29T02:24:58;17.80;99.90
45837;DHT22;31548;51.420;-0.040;2022-07-29T02:27:28;17.70;99.90
45837;DHT22;31548;51.420;-0.040;2022-07-29T02:29:57;17.70;99.90
45837;DHT22;31548;51.420;-0.040;2022-07-29T02:32:26;17.70;99.90
45837;DHT22;31548;51.420;-0.040;2022-07-29T02:34:55;17.60;99.90
45837;DHT22;31548;51.420;-0.040;2022-07-29T02:37:23;17.60;99.90
45837;DHT22;31548;51.420;-0.040;2022-07-29T02:39:53;17.50;99.90
45837;DHT22;31548;51.420;-0.040;2022-07-29T02:42:23;17.50;99.90
45837;DHT22;31548;51.420;-0.040;2022-07-29T02:44:51;17.50;99.90
45837;DHT22;31548;51.420;-0.040;2022-07-29T02:47:32;17.40;99.90
45837;DHT22;31548;51.420;-0.040;2022-07-29T02:50:21;17.40;99.90
45837;DHT22;31548;51.420;-0.040;2022-07-29T02:52:57;17.40;99.90
45837;DHT22;31548;51.420;-0.040;2022-07-29T02:55:34;17.30;99.90
45837;DHT22;31548;51.420;-0.040;2022-07-29T02:58:10;17.30;99.90
45837;DHT22;31548;51.420;-0.040;2022-07-29T03:00:41;17.20;99.90
45837;DHT22;31548;51.420;-0.040;2022-07-29T03:03:13;17.20;99.90
45837;DHT22;31548;51.420;-0.040;2022-07-29T03:05:42;17.10;99.90
45837;DHT22;31548;51.420;-0.040;2022-07-29T03:08:11;17.10;99.90
45837;DHT22;31548;51.420;-0.040;2022-07-29T03:10:44;17.10;99.90
45837;DHT22;31548;51.420;-0.040;2022-07-29T03:13:12;17.00;99.90
45837;DHT22;31548;51.420;-0.040;2022-07-29T03:15:45;16.90;99.90
45837;DHT22;31548;51.420;-0.040;2022-07-29T03:18:13;16.80;99.90
45837;DHT22;31548;51.420;-0.040;2022-07-29T03:20:42;16.80;99.90
45837;DHT22;31548;51.420;-0.040;2022-07-29T03:23:09;16.80;99.90
45837;DHT22;31548;51.420;-0.040;2022-07-29T03:25:37;16.70;99.90
45837;DHT22;31548;51.420;-0.040;2022-07-29T03:28:04;16.70;99.90
45837;DHT22;31548;51.420;-0.040;2022-07-29T03:30:31;16.70;99.90
45837;DHT22;31548;51.420;-0.040;2022-07-29T03:32:59;16.60;99.90
45837;DHT22;31548;51.420;-0.040;2022-07-29T03:35:26;16.60;99.90
45837;DHT22;31548;51.420;-0.040;2022-07-29T03:37:53;16.60;99.90
45837;DHT22;31548;51.420;-0.040;2022-07-29T03:43:10;16.50;99.90
45837;DHT22;31548;51.420;-0.040;2022-07-29T03:45:38;16.50;99.90
45837;DHT22;31548;51.420;-0.040;2022-07-29T03:48:10;16.50;99.90
45837;DHT22;31548;51.420;-0.040;2022-07-29T03:50:39;16.50;99.90
45837;DHT22;31548;51.420;-0.040;2022-07-29T03:53:07;16.40;99.90
45837;DHT22;31548;51.420;-0.040;2022-07-29T03:55:41;16.40;99.90
45837;DHT22;31548;51.420;-0.040;2022-07-29T03:58:11;16.30;99.90
45837;DHT22;31548;51.420;-0.040;2022-07-29T04:00:40;16.30;99.90
45837;DHT22;31548;51.420;-0.040;2022-07-29T04:03:08;16.30;99.90
45837;DHT22;31548;51.420;-0.040;2022-07-29T04:05:37;16.30;99.90
45837;DHT22;31548;51.420;-0.040;2022-07-29T04:08:05;16.20;99.90
45837;DHT22;31548;51.420;-0.040;2022-07-29T04:10:32;16.10;99.90
45837;DHT22;31548;51.420;-0.040;2022-07-29T04:13:01;16.10;99.90
45837;DHT22;31548;51.420;-0.040;2022-07-29T04:15:29;16.10;99.90
45837;DHT22;31548;51.420;-0.040;2022-07-29T04:17:58;16.10;99.90
45837;DHT22;31548;51.420;-0.040;2022-07-29T04:20:26;16.10;99.90
45837;DHT22;31548;51.420;-0.040;2022-07-29T04:22:53;16.00;99.90
45837;DHT22;31548;51.420;-0.040;2022-07-29T04:25:21;16.00;99.90
45837;DHT22;31548;51.420;-0.040;2022-07-29T04:27:48;16.00;99.90
45837;DHT22;31548;51.420;-0.040;2022-07-29T04:30:29;16.00;99.90
45837;DHT22;31548;51.420;-0.040;2022-07-29T04:32:57;16.00;99.90
45837;DHT22;31548;51.420;-0.040;2022-07-29T04:35:25;16.00;99.90
45837;DHT22;31548;51.420;-0.040;2022-07-29T04:37:52;16.00;99.90
45837;DHT22;31548;51.420;-0.040;2022-07-29T04:40:20;16.00;99.90
45837;DHT22;31548;51.420;-0.040;2022-07-29T04:42:47;16.00;99.90
45837;DHT22;31548;51.420;-0.040;2022-07-29T04:45:15;16.00;99.90
45837;DHT22;31548;51.420;-0.040;2022-07-29T04:47:49;16.00;99.90
45837;DHT22;31548;51.420;-0.040;2022-07-29T04:50:16;16.00;99.90
45837;DHT22;31548;51.420;-0.040;2022-07-29T04:52:43;16.00;99.90
45837;DHT22;31548;51.420;-0.040;2022-07-29T04:55:11;16.10;99.90
45837;DHT22;31548;51.420;-0.040;2022-07-29T04:57:38;16.10;99.90
45837;DHT22;31548;51.420;-0.040;2022-07-29T05:00:07;16.10;99.90
45837;DHT22;31548;51.420;-0.040;2022-07-29T05:02:34;16.10;99.90
45837;DHT22;31548;51.420;-0.040;2022-07-29T05:05:02;16.10;99.90
45837;DHT22;31548;51.420;-0.040;2022-07-29T05:07:29;16.10;99.90
45837;DHT22;31548;51.420;-0.040;2022-07-29T05:09:56;16.10;99.90
45837;DHT22;31548;51.420;-0.040;2022-07-29T05:12:24;16.10;99.90
45837;DHT22;31548;51.420;-0.040;2022-07-29T05:14:52;16.10;99.90
45837;DHT22;31548;51.420;-0.040;2022-07-29T05:17:20;16.20;99.90
45837;DHT22;31548;51.420;-0.040;2022-07-29T05:19:47;16.30;99.90
45837;DHT22;31548;51.420;-0.040;2022-07-29T05:22:15;16.30;99.90
45837;DHT22;31548;51.420;-0.040;2022-07-29T05:24:42;16.40;99.90
45837;DHT22;31548;51.420;-0.040;2022-07-29T05:27:10;16.40;99.90
45837;DHT22;31548;51.420;-0.040;2022-07-29T05:29:37;16.40;99.90
45837;DHT22;31548;51.420;-0.040;2022-07-29T05:32:12;16.50;99.90
45837;DHT22;31548;51.420;-0.040;2022-07-29T05:34:40;16.60;99.90
45837;DHT22;31548;51.420;-0.040;2022-07-29T05:37:18;16.70;99.90
45837;DHT22;31548;51.420;-0.040;2022-07-29T05:39:46;16.80;99.90
45837;DHT22;31548;51.420;-0.040;2022-07-29T05:42:16;16.90;99.90
45837;DHT22;31548;51.420;-0.040;2022-07-29T05:44:44;16.90;99.90
45837;DHT22;31548;51.420;-0.040;2022-07-29T05:47:11;17.00;99.90
45837;DHT22;31548;51.420;-0.040;2022-07-29T05:49:38;17.20;99.90
45837;DHT22;31548;51.420;-0.040;2022-07-29T05:52:06;17.20;99.90
45837;DHT22;31548;51.420;-0.040;2022-07-29T05:54:34;17.30;99.90
45837;DHT22;31548;51.420;-0.040;2022-07-29T05:57:01;17.40;99.90
45837;DHT22;31548;51.420;-0.040;2022-07-29T05:59:29;17.40;99.90
45837;DHT22;31548;51.420;-0.040;2022-07-29T06:01:57;17.40;99.90
45837;DHT22;31548;51.420;-0.040;2022-07-29T06:04:24;17.50;99.90
45837;DHT22;31548;51.420;-0.040;2022-07-29T06:06:52;17.60;99.90
45837;DHT22;31548;51.420;-0.040;2022-07-29T06:09:19;17.60;99.90
45837;DHT22;31548;51.420;-0.040;2022-07-29T06:11:46;17.70;99.90
45837;DHT22;31548;51.420;-0.040;2022-07-29T06:14:14;17.70;99.90
45837;DHT22;31548;51.420;-0.040;2022-07-29T06:16:42;17.70;99.90
45837;DHT22;31548;51.420;-0.040;2022-07-29T06:19:12;17.80;99.90
45837;DHT22;31548;51.420;-0.040;2022-07-29T06:21:43;18.00;99.90
45837;DHT22;31548;51.420;-0.040;2022-07-29T06:24:12;18.00;99.90
45837;DHT22;31548;51.420;-0.040;2022-07-29T06:26:40;18.10;99.90
45837;DHT22;31548;51.420;-0.040;2022-07-29T06:29:09;18.20;99.90
45837;DHT22;31548;51.420;-0.040;2022-07-29T06:31:39;18.20;99.90
45837;DHT22;31548;51.420;-0.040;2022-07-29T06:34:07;18.30;99.90
45837;DHT22;31548;51.420;-0.040;2022-07-29T06:36:36;18.30;99.90
45837;DHT22;31548;51.420;-0.040;2022-07-29T06:39:07;18.40;99.90
45837;DHT22;31548;51.420;-0.040;2022-07-29T06:41:34;18.50;99.90
45837;DHT22;31548;51.420;-0.040;2022-07-29T06:44:12;18.60;99.90
45837;DHT22;31548;51.420;-0.040;2022-07-29T06:46:41;18.70;99.90
45837;DHT22;31548;51.420;-0.040;2022-07-29T06:49:08;18.70;99.90
45837;DHT22;31548;51.420;-0.040;2022-07-29T06:51:36;18.80;99.90
45837;DHT22;31548;51.420;-0.040;2022-07-29T06:54:04;18.90;99.90
45837;DHT22;31548;51.420;-0.040;2022-07-29T06:56:34;18.90;99.90
45837;DHT22;31548;51.420;-0.040;2022-07-29T06:59:07;18.90;99.90
45837;DHT22;31548;51.420;-0.040;2022-07-29T07:01:37;19.00;99.90
45837;DHT22;31548;51.420;-0.040;2022-07-29T07:04:05;19.00;99.90
45837;DHT22;31548;51.420;-0.040;2022-07-29T07:06:36;19.10;99.90
45837;DHT22;31548;51.420;-0.040;2022-07-29T07:09:03;19.20;99.90
45837;DHT22;31548;51.420;-0.040;2022-07-29T07:11:31;19.00;99.90
45837;DHT22;31548;51.420;-0.040;2022-07-29T07:13:58;19.10;99.90
45837;DHT22;31548;51.420;-0.040;2022-07-29T07:16:30;19.10;99.90
45837;DHT22;31548;51.420;-0.040;2022-07-29T07:18:58;19.20;99.90
45837;DHT22;31548;51.420;-0.040;2022-07-29T07:21:26;19.20;99.90
45837;DHT22;31548;51.420;-0.040;2022-07-29T07:23:56;19.20;99.90
45837;DHT22;31548;51.420;-0.040;2022-07-29T07:26:24;19.20;99.90
45837;DHT22;31548;51.420;-0.040;2022-07-29T07:28:52;19.10;99.90
45837;DHT22;31548;51.420;-0.040;2022-07-29T07:31:19;19.00;99.90
45837;DHT22;31548;51.420;-0.040;2022-07-29T07:33:47;19.10;99.90
45837;DHT22;31548;51.420;-0.040;2022-07-29T07:36:14;19.00;99.90
45837;DHT22;31548;51.420;-0.040;2022-07-29T07:38:42;19.10;99.90
45837;DHT22;31548;51.420;-0.040;2022-07-29T07:41:09;19.10;99.90
45837;DHT22;31548;51.420;-0.040;2022-07-29T07:43:36;19.10;99.90
45837;DHT22;31548;51.420;-0.040;2022-07-29T07:46:04;19.20;99.90
45837;DHT22;31548;51.420;-0.040;2022-07-29T07:48:32;19.20;99.90
45837;DHT22;31548;51.420;-0.040;2022-07-29T07:51:01;19.30;99.90
45837;DHT22;31548;51.420;-0.040;2022-07-29T07:53:29;19.40;99.90
45837;DHT22;31548;51.420;-0.040;2022-07-29T07:55:58;19.40;99.90
45837;DHT22;31548;51.420;-0.040;2022-07-29T07:58:41;19.50;99.90
45837;DHT22;31548;51.420;-0.040;2022-07-29T08:01:09;19.50;99.90
45837;DHT22;31548;51.420;-0.040;2022-07-29T08:03:37;19.50;99.90
45837;DHT22;31548;51.420;-0.040;2022-07-29T08:06:04;19.60;99.90
45837;DHT22;31548;51.420;-0.040;2022-07-29T08:08:32;19.60;99.90
45837;DHT22;31548;51.420;-0.040;2022-07-29T08:11:00;19.70;99.90
45837;DHT22;31548;51.420;-0.040;2022-07-29T08:13:36;19.80;99.90
45837;DHT22;31548;51.420;-0.040;2022-07-29T08:16:03;19.80;99.90
45837;DHT22;31548;51.420;-0.040;2022-07-29T08:18:43;19.90;99.90
45837;DHT22;31548;51.420;-0.040;2022-07-29T08:21:12;19.90;99.90
45837;DHT22;31548;51.420;-0.040;2022-07-29T08:23:45;20.10;99.90
45837;DHT22;31548;51.420;-0.040;2022-07-29T08:26:33;20.20;99.90
45837;DHT22;31548;51.420;-0.040;2022-07-29T08:29:00;20.30;99.90
45837;DHT22;31548;51.420;-0.040;2022-07-29T08:31:28;20.40;99.90
45837;DHT22;31548;51.420;-0.040;2022-07-29T08:33:55;20.40;99.90
45837;DHT22;31548;51.420;-0.040;2022-07-29T08:36:24;20.40;99.90
45837;DHT22;31548;51.420;-0.040;2022-07-29T08:38:52;20.50;99.90
45837;DHT22;31548;51.420;-0.040;2022-07-29T08:41:20;20.60;99.90
45837;DHT22;31548;51.420;-0.040;2022-07-29T08:43:48;20.60;99.90
45837;DHT22;31548;51.420;-0.040;2022-07-29T08:46:16;20.50;99.90
45837;DHT22;31548;51.420;-0.040;2022-07-29T08:48:44;20.60;99.90
45837;DHT22;31548;51.420;-0.040;2022-07-29T08:51:14;20.70;99.00
45837;DHT22;31548;51.420;-0.040;2022-07-29T08:53:44;20.70;99.70
45837;DHT22;31548;51.420;-0.040;2022-07-29T08:56:13;20.80;98.90
45837;DHT22;31548;51.420;-0.040;2022-07-29T08:58:41;20.90;97.60
45837;DHT22;31548;51.420;-0.040;2022-07-29T09:01:22;20.70;97.10
45837;DHT22;31548;51.420;-0.040;2022-07-29T09:04:04;20.90;97.30
45837;DHT22;31548;51.420;-0.040;2022-07-29T09:06:36;20.90;97.40
45837;DHT22;31548;51.420;-0.040;2022-07-29T09:09:04;21.10;97.70
45837;DHT22;31548;51.420;-0.040;2022-07-29T09:11:32;21.10;95.90
45837;DHT22;31548;51.420;-0.040;2022-07-29T09:14:00;21.10;95.20
45837;DHT22;31548;51.420;-0.040;2022-07-29T09:16:51;21.20;95.60
45837;DHT22;31548;51.420;-0.040;2022-07-29T09:21:57;21.30;95.90
45837;DHT22;31548;51.420;-0.040;2022-07-29T09:24:40;21.40;95.20
45837;DHT22;31548;51.420;-0.040;2022-07-29T09:27:24;21.60;96.10
45837;DHT22;31548;51.420;-0.040;2022-07-29T09:32:28;21.60;94.50
45837;DHT22;31548;51.420;-0.040;2022-07-29T09:35:16;21.80;93.40
45837;DHT22;31548;51.420;-0.040;2022-07-29T09:37:44;21.80;93.10
45837;DHT22;31548;51.420;-0.040;2022-07-29T09:40:19;21.80;93.10
45837;DHT22;31548;51.420;-0.040;2022-07-29T09:42:47;21.90;93.20
45837;DHT22;31548;51.420;-0.040;2022-07-29T09:45:34;22.00;93.60
45837;DHT22;31548;51.420;-0.040;2022-07-29T09:48:17;22.20;94.00
45837;DHT22;31548;51.420;-0.040;2022-07-29T09:50:45;22.30;93.70
45837;DHT22;31548;51.420;-0.040;2022-07-29T09:53:34;22.40;93.00
45837;DHT22;31548;51.420;-0.040;2022-07-29T09:56:05;22.50;91.80
45837;DHT22;31548;51.420;-0.040;2022-07-29T09:58:33;22.30;91.70
45837;DHT22;31548;51.420;-0.040;2022-07-29T10:01:01;22.40;93.00
45837;DHT22;31548;51.420;-0.040;2022-07-29T10:03:29;22.40;91.80
45837;DHT22;31548;51.420;-0.040;2022-07-29T10:06:08;22.40;91.80
45837;DHT22;31548;51.420;-0.040;2022-07-29T10:08:36;22.40;92.00
45837;DHT22;31548;51.420;-0.040;2022-07-29T10:11:15;22.70;92.00
45837;DHT22;31548;51.420;-0.040;2022-07-29T10:13:45;22.90;92.30
45837;DHT22;31548;51.420;-0.040;2022-07-29T10:16:14;23.10;92.00
45837;DHT22;31548;51.420;-0.040;2022-07-29T10:18:43;23.20;91.60
45837;DHT22;31548;51.420;-0.040;2022-07-29T10:21:11;23.20;91.30
45837;DHT22;31548;51.420;-0.040;2022-07-29T10:23:59;23.10;91.10
45837;DHT22;31548;51.420;-0.040;2022-07-29T10:26:29;23.20;91.30
45837;DHT22;31548;51.420;-0.040;2022-07-29T10:28:56;23.20;91.60
45837;DHT22;31548;51.420;-0.040;2022-07-29T10:31:31;23.30;91.30
45837;DHT22;31548;51.420;-0.040;2022-07-29T10:37:02;23.60;91.40
45837;DHT22;31548;51.420;-0.040;2022-07-29T10:39:53;23.90;91.10
45837;DHT22;31548;51.420;-0.040;2022-07-29T10:42:25;23.90;90.40
45837;DHT22;31548;51.420;-0.040;2022-07-29T10:45:02;24.00;90.10
45837;DHT22;31548;51.420;-0.040;2022-07-29T10:47:31;23.90;89.60
45837;DHT22;31548;51.420;-0.040;2022-07-29T10:50:03;23.90;88.90
45837;DHT22;31548;51.420;-0.040;2022-07-29T10:52:54;23.80;89.10
45837;DHT22;31548;51.420;-0.040;2022-07-29T10:55:43;24.20;90.00
45837;DHT22;31548;51.420;-0.040;2022-07-29T11:00:41;24.40;87.30
45837;DHT22;31548;51.420;-0.040;2022-07-29T11:06:16;24.40;88.90
45837;DHT22;31548;51.420;-0.040;2022-07-29T11:09:16;24.70;87.90
45837;DHT22;31548;51.420;-0.040;2022-07-29T11:11:52;24.90;88.50
45837;DHT22;31548;51.420;-0.040;2022-07-29T11:17:19;25.40;90.10
45837;DHT22;31548;51.420;-0.040;2022-07-29T11:19:47;25.40;86.40
45837;DHT22;31548;51.420;-0.040;2022-07-29T11:22:34;25.40;86.10
45837;DHT22;31548;51.420;-0.040;2022-07-29T11:25:18;25.40;85.00
45837;DHT22;31548;51.420;-0.040;2022-07-29T11:28:14;25.50;85.70
45837;DHT22;31548;51.420;-0.040;2022-07-29T11:30:53;25.60;85.00
45837;DHT22;31548;51.420;-0.040;2022-07-29T11:33:41;25.80;83.50
45837;DHT22;31548;51.420;-0.040;2022-07-29T11:36:22;25.90;83.80
45837;DHT22;31548;51.420;-0.040;2022-07-29T11:39:26;25.90;82.90
45837;DHT22;31548;51.420;-0.040;2022-07-29T11:47:59;26.00;83.60
45837;DHT22;31548;51.420;-0.040;2022-07-29T11:50:46;26.00;82.70
45837;DHT22;31548;51.420;-0.040;2022-07-29T11:53:14;26.10;82.90
45837;DHT22;31548;51.420;-0.040;2022-07-29T11:55:42;26.20;83.20
45837;DHT22;31548;51.420;-0.040;2022-07-29T11:58:27;26.40;84.40
45837;DHT22;31548;51.420;-0.040;2022-07-29T12:00:55;26.70;84.80
45837;DHT22;31548;51.420;-0.040;2022-07-29T12:03:25;27.10;84.80
45837;DHT22;31548;51.420;-0.040;2022-07-29T12:06:13;27.00;81.80
45837;DHT22;31548;51.420;-0.040;2022-07-29T12:09:07;27.10;81.60
45837;DHT22;31548;51.420;-0.040;2022-07-29T12:11:40;26.90;82.40
45837;DHT22;31548;51.420;-0.040;2022-07-29T12:14:27;26.80;82.00
45837;DHT22;31548;51.420;-0.040;2022-07-29T12:16:56;27.00;82.60
45837;DHT22;31548;51.420;-0.040;2022-07-29T12:19:25;27.40;83.10
45837;DHT22;31548;51.420;-0.040;2022-07-29T12:21:54;27.50;81.30
45837;DHT22;31548;51.420;-0.040;2022-07-29T12:24:25;27.50;81.30
45837;DHT22;31548;51.420;-0.040;2022-07-29T12:26:58;27.60;81.10
45837;DHT22;31548;51.420;-0.040;2022-07-29T12:29:26;27.70;80.00
45837;DHT22;31548;51.420;-0.040;2022-07-29T12:32:03;27.70;79.80
45837;DHT22;31548;51.420;-0.040;2022-07-29T12:34:32;27.70;79.40
45837;DHT22;31548;51.420;-0.040;2022-07-29T12:37:00;27.70;79.10
45837;DHT22;31548;51.420;-0.040;2022-07-29T12:39:28;27.90;79.00
45837;DHT22;31548;51.420;-0.040;2022-07-29T12:41:55;27.70;78.50
45837;DHT22;31548;51.420;-0.040;2022-07-29T12:44:50;27.80;80.40
45837;DHT22;31548;51.420;-0.040;2022-07-29T12:47:19;28.10;80.00
45837;DHT22;31548;51.420;-0.040;2022-07-29T12:49:47;28.50;79.40
45837;DHT22;31548;51.420;-0.040;2022-07-29T12:52:32;28.60;79.30
45837;DHT22;31548;51.420;-0.040;2022-07-29T12:55:01;28.90;79.00
45837;DHT22;31548;51.420;-0.040;2022-07-29T12:57:29;29.30;77.10
45837;DHT22;31548;51.420;-0.040;2022-07-29T13:00:21;29.60;76.30
45837;DHT22;31548;51.420;-0.040;2022-07-29T13:02:56;29.70;76.50
45837;DHT22;31548;51.420;-0.040;2022-07-29T13:05:24;29.60;75.90
45837;DHT22;31548;51.420;-0.040;2022-07-29T13:07:51;29.60;75.30
45837;DHT22;31548;51.420;-0.040;2022-07-29T13:10:23;29.70;77.50
45837;DHT22;31548;51.420;-0.040;2022-07-29T13:13:10;29.60;75.00
45837;DHT22;31548;51.420;-0.040;2022-07-29T13:15:42;29.90;76.30
45837;DHT22;31548;51.420;-0.040;2022-07-29T13:18:28;29.10;75.00
45837;DHT22;31548;51.420;-0.040;2022-07-29T13:20:56;29.50;79.00
45837;DHT22;31548;51.420;-0.040;2022-07-29T13:23:23;29.60;77.20
45837;DHT22;31548;51.420;-0.040;2022-07-29T13:25:51;29.70;76.80
45837;DHT22;31548;51.420;-0.040;2022-07-29T13:28:19;29.60;75.00
45837;DHT22;31548;51.420;-0.040;2022-07-29T13:30:48;29.50;74.70
45837;DHT22;31548;51.420;-0.040;2022-07-29T13:33:15;30.00;74.80
45837;DHT22;31548;51.420;-0.040;2022-07-29T13:35:43;29.50;74.20
45837;DHT22;31548;51.420;-0.040;2022-07-29T13:38:10;29.60;75.50
45837;DHT22;31548;51.420;-0.040;2022-07-29T13:40:37;29.90;74.60
45837;DHT22;31548;51.420;-0.040;2022-07-29T13:43:04;30.00;74.90
45837;DHT22;31548;51.420;-0.040;2022-07-29T13:45:32;30.40;73.80
45837;DHT22;31548;51.420;-0.040;2022-07-29T13:47:59;30.30;73.70
45837;DHT22;31548;51.420;-0.040;2022-07-29T13:50:26;30.50;73.80
45837;DHT22;31548;51.420;-0.040;2022-07-29T13:52:53;30.30;72.30
45837;DHT22;31548;51.420;-0.040;2022-07-29T13:55:21;30.70;74.00
45837;DHT22;31548;51.420;-0.040;2022-07-29T13:57:48;31.20;73.60
45837;DHT22;31548;51.420;-0.040;2022-07-29T14:00:16;31.30;72.60
45837;DHT22;31548;51.420;-0.040;2022-07-29T14:02:43;31.70;73.70
45837;DHT22;31548;51.420;-0.040;2022-07-29T14:05:11;31.80;71.50
45837;DHT22;31548;51.420;-0.040;2022-07-29T14:07:38;31.00;71.90
45837;DHT22;31548;51.420;-0.040;2022-07-29T14:10:06;30.40;72.20
45837;DHT22;31548;51.420;-0.040;2022-07-29T14:12:33;29.50;71.80
45837;DHT22;31548;51.420;-0.040;2022-07-29T14:15:01;29.00;72.40
45837;DHT22;31548;51.420;-0.040;2022-07-29T14:17:28;28.80;73.10
45837;DHT22;31548;51.420;-0.040;2022-07-29T14:19:55;28.90;72.80
45837;DHT22;31548;51.420;-0.040;2022-07-29T14:22:23;29.30;72.50
45837;DHT22;31548;51.420;-0.040;2022-07-29T14:24:52;29.80;72.70
45837;DHT22;31548;51.420;-0.040;2022-07-29T14:27:19;30.10;71.60
45837;DHT22;31548;51.420;-0.040;2022-07-29T14:30:04;30.40;71.00
45837;DHT22;31548;51.420;-0.040;2022-07-29T14:32:32;30.80;71.00
45837;DHT22;31548;51.420;-0.040;2022-07-29T14:34:59;30.80;70.80
45837;DHT22;31548;51.420;-0.040;2022-07-29T14:37:26;31.10;71.40
45837;DHT22;31548;51.420;-0.040;2022-07-29T14:40:06;31.50;71.00
45837;DHT22;31548;51.420;-0.040;2022-07-29T14:42:33;31.30;69.40
45837;DHT22;31548;51.420;-0.040;2022-07-29T14:45:01;31.50;69.80
45837;DHT22;31548;51.420;-0.040;2022-07-29T14:47:28;30.90;70.20
45837;DHT22;31548;51.420;-0.040;2022-07-29T14:49:55;30.70;71.10
45837;DHT22;31548;51.420;-0.040;2022-07-29T14:52:23;30.50;70.20
45837;DHT22;31548;51.420;-0.040;2022-07-29T14:54:50;31.00;70.30
45837;DHT22;31548;51.420;-0.040;2022-07-29T14:57:17;31.50;69.80
45837;DHT22;31548;51.420;-0.040;2022-07-29T14:59:45;31.80;70.70
45837;DHT22;31548;51.420;-0.040;2022-07-29T15:02:12;32.50;70.20
45837;DHT22;31548;51.420;-0.040;2022-07-29T15:04:39;33.00;69.50
45837;DHT22;31548;51.420;-0.040;2022-07-29T15:07:07;33.20;67.90
45837;DHT22;31548;51.420;-0.040;2022-07-29T15:09:35;33.70;68.30
45837;DHT22;31548;51.420;-0.040;2022-07-29T15:12:14;33.60;67.10
45837;DHT22;31548;51.420;-0.040;2022-07-29T15:14:42;33.70;67.90
45837;DHT22;31548;51.420;-0.040;2022-07-29T15:17:09;33.90;66.50
45837;DHT22;31548;51.420;-0.040;2022-07-29T15:19:37;33.70;66.00
45837;DHT22;31548;51.420;-0.040;2022-07-29T15:22:10;33.80;66.60
45837;DHT22;31548;51.420;-0.040;2022-07-29T15:24:37;32.90;65.80
45837;DHT22;31548;51.420;-0.040;2022-07-29T15:27:05;32.30;66.70
45837;DHT22;31548;51.420;-0.040;2022-07-29T15:29:32;31.70;66.80
45837;DHT22;31548;51.420;-0.040;2022-07-29T15:31:59;31.50;67.80
45837;DHT22;31548;51.420;-0.040;2022-07-29T15:34:28;30.90;67.40
45837;DHT22;31548;51.420;-0.040;2022-07-29T15:36:56;30.60;68.20
45837;DHT22;31548;51.420;-0.040;2022-07-29T15:39:23;30.40;69.20
45837;DHT22;31548;51.420;-0.040;2022-07-29T15:41:51;30.40;68.80
45837;DHT22;31548;51.420;-0.040;2022-07-29T15:44:19;30.30;69.10
45837;DHT22;31548;51.420;-0.040;2022-07-29T15:46:49;29.90;68.90
45837;DHT22;31548;51.420;-0.040;2022-07-29T15:49:42;29.80;68.70
45837;DHT22;31548;51.420;-0.040;2022-07-29T15:52:17;29.60;69.20
45837;DHT22;31548;51.420;-0.040;2022-07-29T15:54:54;29.40;68.80
45837;DHT22;31548;51.420;-0.040;2022-07-29T15:57:22;29.10;69.10
45837;DHT22;31548;51.420;-0.040;2022-07-29T15:59:50;29.10;69.70
45837;DHT22;31548;51.420;-0.040;2022-07-29T16:02:18;28.90;69.50
45837;DHT22;31548;51.420;-0.040;2022-07-29T16:04:46;28.70;71.00
45837;DHT22;31548;51.420;-0.040;2022-07-29T16:07:13;28.40;69.70
45837;DHT22;31548;51.420;-0.040;2022-07-29T16:09:42;28.30;73.90
45837;DHT22;31548;51.420;-0.040;2022-07-29T16:12:09;28.20;70.50
45837;DHT22;31548;51.420;-0.040;2022-07-29T16:14:44;28.20;71.00